Time;durP1;ratioP1;P1;durP2;ratioP2;P2;SDS_P1;SDS_P2;PMS_P1;PMS_P2;Temp;Humidity;BMP_temperature;BMP_pressure;BME280_temperature;BME280_humidity;BME280_pressure;Samples;Min_cycle;Max_cycle;Signal;HPM_P1;HPM_P2
2022/04/24 00:07:17;;;;;;;7.60;5.63;;;9.30;1.00;;;;;;6192448;23;20526;-89
2022/04/24 00:13:11;;;;;;;7.67;6.37;;;9.30;1.00;;;;;;6197065;22;20528;-90
2022/04/24 00:15:41;;;;;;;8.00;6.33;;;9.20;1.00;;;;;;6251824;22;20372;-91
2022/04/24 00:18:12;;;;;;;11.93;6.50;;;9.20;1.00;;;;;;6260821;22;20462;-89
2022/04/24 00:21:00;;;;;;;7.07;5.80;;;9.10;1.00;;;;;;6247400;22;20929;-89
2022/04/24 00:23:41;;;;;;;6.67;6.03;;;9.10;1.00;;;;;;6267880;22;20416;-90
2022/04/24 00:28:59;;;;;;;7.70;6.00;;;9.10;1.00;;;;;;6238314;22;20258;-90
2022/04/24 00:34:29;;;;;;;6.75;5.68;;;9.00;1.00;;;;;;6291856;22;20387;-90
2022/04/24 00:37:08;;;;;;;7.15;5.88;;;9.00;1.00;;;;;;6295825;22;20222;-89
2022/04/24 00:39:42;;;;;;;8.77;6.38;;;9.00;1.00;;;;;;6302879;22;20214;-90
2022/04/24 00:42:18;;;;;;;7.83;5.97;;;9.00;1.00;;;;;;6322139;22;20199;-91
2022/04/24 00:45:12;;;;;;;8.63;5.87;;;8.90;1.00;;;;;;6321906;22;20494;-89
2022/04/24 00:48:02;;;;;;;;;;;;;;;;;;;;;
2022/04/24 00:50:29;;;;;;;7.30;5.77;;;8.80;1.00;;;;;;6193690;23;38206;-89
2022/04/24 00:52:59;;;;;;;6.73;5.80;;;8.70;1.00;;;;;;6201310;22;20560;-89
2022/04/24 01:00:48;;;;;;;8.48;7.00;;;8.60;1.00;;;;;;6258750;22;20207;-90
2022/04/24 01:03:40;;;;;;;9.57;6.72;;;8.60;1.00;;;;;;6259225;22;20220;-89
2022/04/24 01:06:10;;;;;;;9.27;7.78;;;8.60;1.00;;;;;;6266998;22;20623;-92
2022/04/24 01:08:49;;;;;;;11.68;7.72;;;8.50;1.00;;;;;;6287043;22;20256;-90
2022/04/24 01:11:19;;;;;;;8.90;6.50;;;8.50;1.00;;;;;;6272553;22;20803;-88
2022/04/24 01:13:51;;;;;;;8.33;6.60;;;8.50;1.00;;;;;;6269268;22;20474;-89
2022/04/24 01:16:30;;;;;;;10.05;6.00;;;8.40;1.00;;;;;;6253493;22;20419;-90
2022/04/24 01:19:29;;;;;;;9.15;6.30;;;8.40;1.00;;;;;;6280817;22;20201;-88
2022/04/24 01:22:00;;;;;;;8.17;6.70;;;8.40;1.00;;;;;;6259889;22;20239;-89
2022/04/24 01:27:32;;;;;;;9.98;6.75;;;8.20;1.00;;;;;;6287373;22;21491;-88
2022/04/24 01:30:00;;;;;;;9.20;6.80;;;8.20;1.00;;;;;;6255762;22;20213;-90
2022/04/24 01:33:03;;;;;;;9.25;7.90;;;8.20;1.00;;;;;;6306930;22;20198;-88
2022/04/24 01:35:30;;;;;;;7.13;6.40;;;8.10;1.00;;;;;;6310992;22;20217;-90
2022/04/24 01:38:08;;;;;;;8.77;6.32;;;8.20;1.00;;;;;;6307643;22;20403;-89
2022/04/24 01:40:40;;;;;;;8.35;7.05;;;8.10;1.00;;;;;;6314768;22;20204;-90
2022/04/24 01:43:31;;;;;;;;;;;;;;;;;;;;;
2022/04/24 01:46:01;;;;;;;10.97;7.73;;;8.10;1.00;;;;;;6317217;22;49720;-90
2022/04/24 01:48:29;;;;;;;7.18;6.45;;;8.10;1.00;;;;;;6313633;22;20395;-90
2022/04/24 01:51:01;;;;;;;11.63;7.28;;;8.00;1.00;;;;;;6313383;22;20212;-89
2022/04/24 01:53:42;;;;;;;11.00;7.38;;;8.00;1.00;;;;;;6315688;22;20222;-90
2022/04/24 01:56:28;;;;;;;8.48;6.07;;;8.00;1.00;;;;;;6312007;22;20302;-89
2022/04/24 01:59:02;;;;;;;9.35;7.25;;;7.90;1.00;;;;;;6316571;22;20205;-90
2022/04/24 02:01:29;;;;;;;9.32;6.80;;;7.90;1.00;;;;;;6317131;22;20208;-90
2022/04/24 02:04:19;;;;;;;10.43;6.40;;;7.90;1.00;;;;;;6317201;22;20234;-89
2022/04/24 02:07:29;;;;;;;9.82;6.68;;;7.90;1.00;;;;;;6313220;22;20274;-89
2022/04/24 02:15:42;;;;;;;;;;;;;;;;;;;;;
2022/04/24 02:18:51;;;;;;;9.95;7.03;;;7.70;1.00;;;;;;6273988;22;49917;-89
2022/04/24 02:21:20;;;;;;;9.05;6.53;;;7.80;1.00;;;;;;6252818;22;20211;-90
2022/04/24 02:23:51;;;;;;;9.07;7.13;;;7.70;1.00;;;;;;6286198;22;20204;-90
2022/04/24 02:28:59;;;;;;;9.10;6.03;;;7.70;1.00;;;;;;6231921;22;20576;-89
2022/04/24 02:31:38;;;;;;;9.65;7.43;;;7.60;1.00;;;;;;6250215;22;20210;-88
2022/04/24 02:34:29;;;;;;;9.23;6.88;;;7.60;1.00;;;;;;6248302;22;20221;-88
2022/04/24 02:39:40;;;;;;;8.57;7.15;;;7.60;1.00;;;;;;6221087;22;20225;-89
2022/04/24 02:42:10;;;;;;;10.40;7.30;;;7.60;1.00;;;;;;6227888;23;20241;-90
2022/04/24 02:44:40;;;;;;;10.13;6.43;;;7.50;1.00;;;;;;6232214;23;20212;-89
2022/04/24 02:50:10;;;;;;;;;;;;;;;;;;;;;
2022/04/24 02:53:00;;;;;;;9.57;8.00;;;7.40;1.00;;;;;;6236564;22;40263;-90
2022/04/24 02:55:32;;;;;;;12.68;8.23;;;7.40;1.00;;;;;;6223640;22;20220;-90
2022/04/24 02:58:08;;;;;;;11.32;7.47;;;7.40;1.00;;;;;;6291965;22;20212;-91
2022/04/24 03:00:51;;;;;;;9.77;7.70;;;7.40;1.00;;;;;;6269953;22;20211;-90
2022/04/24 03:03:22;;;;;;;13.00;7.93;;;7.40;1.00;;;;;;6227511;22;20199;-89
2022/04/24 03:05:50;;;;;;;10.50;7.32;;;7.30;1.00;;;;;;6194227;23;20206;-90
2022/04/24 03:08:29;;;;;;;9.05;6.78;;;7.30;1.00;;;;;;6221398;22;20220;-91
2022/04/24 03:11:02;;;;;;;11.38;7.90;;;7.20;1.00;;;;;;6211868;22;20199;-90
2022/04/24 03:13:32;;;;;;;10.07;8.00;;;7.20;1.00;;;;;;6231331;23;20198;-90
2022/04/24 03:16:00;;;;;;;11.48;8.18;;;7.20;1.00;;;;;;6240076;22;20206;-89
2022/04/24 03:18:31;;;;;;;8.40;7.30;;;7.20;1.00;;;;;;6247517;22;20217;-90
2022/04/24 03:21:10;;;;;;;10.82;8.35;;;7.10;1.00;;;;;;6253282;22;20200;-90
2022/04/24 03:28:51;;;;;;;10.10;8.05;;;7.00;1.00;;;;;;6202684;22;20205;-89
2022/04/24 03:31:32;;;;;;;10.70;8.30;;;7.00;1.00;;;;;;6215659;23;20209;-89
2022/04/24 03:34:02;;;;;;;8.48;7.57;;;7.00;1.00;;;;;;6222814;23;20233;-91
2022/04/24 03:36:29;;;;;;;9.77;7.75;;;7.00;1.00;;;;;;6224042;23;20201;-89
2022/04/24 03:39:00;;;;;;;12.00;7.38;;;7.00;1.00;;;;;;6224150;22;20249;-91
2022/04/24 03:41:30;;;;;;;11.65;8.27;;;6.90;1.00;;;;;;6219390;23;20205;-90
2022/04/24 03:44:00;;;;;;;10.95;8.20;;;6.90;1.00;;;;;;6258280;22;20252;-90
2022/04/24 03:46:31;;;;;;;11.80;8.02;;;7.00;1.00;;;;;;6257160;22;20252;-90
2022/04/24 03:49:09;;;;;;;10.90;7.78;;;7.00;1.00;;;;;;6252791;22;20210;-89
2022/04/24 03:51:51;;;;;;;12.00;8.15;;;6.90;1.00;;;;;;6249639;22;20196;-90
2022/04/24 03:57:12;;;;;;;8.82;7.15;;;6.90;1.00;;;;;;6215218;22;20211;-90
2022/04/24 03:59:40;;;;;;;11.30;8.05;;;6.90;1.00;;;;;;6252520;22;20488;-90
